Terminal Aerodrome Forecast
Issued by NWS

Home | Current Version | Previous Version | Text Only | Print | Product List | Glossary On
Versions: 1 2 3 4 5 6 7 8 9 10 11 12 13 14 15
121
FTUS42 KTBW 040537
TAFPGD
TAF
KPGD 040537Z 0406/0506 13005KT 4SM BR FEW012 OVC150
     FM041000 20006KT 3SM BR SCT010 BKN020 OVC150
     FM041300 22007KT P6SM VCSH BKN025 BKN035
     FM041500 23011G18KT 6SM TSRA SCT015 BKN020CB BKN035
     FM050200 30010KT P6SM SCT025 SCT100=

USA.gov is the U.S. government's official web portal to all federal, state and local government web resources and services.